Time;durP1;ratioP1;P1;durP2;ratioP2;P2;SDS_P1;SDS_P2;PMS_P1;PMS_P2;Temp;Humidity;BMP_temperature;BMP_pressure;BME280_temperature;BME280_humidity;BME280_pressure;Samples;Min_cycle;Max_cycle;Signal;HPM_P1;HPM_P2
2023/04/10 00:01:34;;;;;;;1.63;1.30;;;;;;;;;;5043202;28;20389;-84
2023/04/10 00:03:59;;;;;;;1.88;1.55;;;;;;;;;;5037822;28;20029;-83
2023/04/10 00:06:26;;;;;;;1.60;1.20;;;;;;;;;;5041291;28;20040;-84
2023/04/10 00:08:52;;;;;;;2.25;1.52;;;;;;;;;;5039117;28;20045;-81
2023/04/10 00:11:17;;;;;;;3.53;1.55;;;;;;;;;;5045364;28;20053;-81
2023/04/10 00:13:43;;;;;;;1.85;1.13;;;;;;;;;;5043926;28;20885;-84
2023/04/10 00:16:08;;;;;;;4.30;1.67;;;;;;;;;;5040218;28;20108;-83
2023/04/10 00:18:33;;;;;;;2.13;1.38;;;;;;;;;;5048819;28;20060;-84
2023/04/10 00:20:59;;;;;;;3.75;1.58;;;;;;;;;;5038175;28;20025;-84
2023/04/10 00:23:25;;;;;;;3.53;1.65;;;;;;;;;;5042425;28;20504;-83
2023/04/10 00:25:50;;;;;;;1.08;0.68;;;;;;;;;;5044832;28;20491;-83
2023/04/10 00:28:16;;;;;;;1.85;1.63;;;;;;;;;;5039454;28;20028;-83
2023/04/10 00:30:41;;;;;;;5.13;1.45;;;;;;;;;;5035630;28;20061;-83
2023/04/10 00:33:07;;;;;;;2.80;1.83;;;;;;;;;;5046308;28;20025;-83
2023/04/10 00:35:32;;;;;;;2.63;1.80;;;;;;;;;;5044615;28;20534;-83
2023/04/10 00:37:57;;;;;;;2.25;1.73;;;;;;;;;;5043631;28;20029;-83
2023/04/10 00:40:23;;;;;;;4.38;2.15;;;;;;;;;;5036405;28;20078;-83
2023/04/10 00:42:48;;;;;;;2.55;1.17;;;;;;;;;;5045324;28;20025;-83
2023/04/10 00:45:14;;;;;;;2.80;1.45;;;;;;;;;;5044147;28;20085;-83
2023/04/10 00:47:40;;;;;;;1.17;0.98;;;;;;;;;;5043733;28;20021;-83
2023/04/10 00:50:06;;;;;;;1.73;1.33;;;;;;;;;;5045618;28;20099;-82
2023/04/10 00:52:31;;;;;;;3.63;1.58;;;;;;;;;;5047137;28;20037;-83
2023/04/10 00:54:57;;;;;;;3.00;1.17;;;;;;;;;;5046179;28;20033;-84
2023/04/10 00:57:23;;;;;;;2.92;2.13;;;;;;;;;;5042402;28;20029;-84
2023/04/10 00:59:50;;;;;;;3.03;2.05;;;;;;;;;;5044318;28;20036;-84
2023/04/10 01:02:16;;;;;;;2.83;1.35;;;;;;;;;;5038079;28;20057;-84
2023/04/10 01:04:42;;;;;;;3.42;1.95;;;;;;;;;;5036313;28;20024;-84
2023/04/10 01:07:29;;;;;;;3.95;1.60;;;;;;;;;;5042207;28;20355;-84
2023/04/10 01:10:24;;;;;;;4.47;2.50;;;;;;;;;;5034785;28;20060;-84
2023/04/10 01:13:05;;;;;;;3.83;1.80;;;;;;;;;;5044949;28;20079;-84
2023/04/10 01:15:55;;;;;;;1.25;1.10;;;;;;;;;;5036529;28;20481;-84
2023/04/10 01:18:30;;;;;;;2.40;1.60;;;;;;;;;;5038859;28;20021;-84
2023/04/10 01:20:58;;;;;;;4.28;1.90;;;;;;;;;;5045723;28;20108;-84
2023/04/10 01:23:38;;;;;;;1.48;1.08;;;;;;;;;;5040273;28;20021;-84
2023/04/10 01:26:07;;;;;;;2.85;1.45;;;;;;;;;;5039792;28;20025;-84
2023/04/10 01:29:03;;;;;;;2.63;1.25;;;;;;;;;;5040487;28;20028;-83
2023/04/10 01:31:37;;;;;;;2.70;1.60;;;;;;;;;;5039183;28;20053;-83
2023/04/10 01:34:19;;;;;;;2.58;1.48;;;;;;;;;;5036844;28;20033;-83
2023/04/10 01:36:51;;;;;;;1.92;1.20;;;;;;;;;;5038308;28;20052;-83
2023/04/10 01:39:21;;;;;;;2.20;1.48;;;;;;;;;;5038263;28;20040;-84
2023/04/10 01:41:52;;;;;;;1.15;1.05;;;;;;;;;;5043222;28;20037;-84
2023/04/10 01:44:21;;;;;;;1.38;1.05;;;;;;;;;;5036788;28;20385;-85
2023/04/10 01:46:48;;;;;;;1.17;1.10;;;;;;;;;;5039937;28;20059;-84
2023/04/10 01:49:15;;;;;;;1.65;1.10;;;;;;;;;;5043928;28;20064;-85
2023/04/10 01:51:41;;;;;;;4.07;1.70;;;;;;;;;;5035810;28;20033;-84
2023/04/10 01:54:07;;;;;;;4.03;1.70;;;;;;;;;;5042800;28;20040;-85
2023/04/10 01:56:33;;;;;;;1.67;1.23;;;;;;;;;;5038598;28;20450;-85
2023/04/10 01:58:59;;;;;;;4.28;1.67;;;;;;;;;;5042699;28;20100;-85
2023/04/10 02:01:24;;;;;;;1.85;1.30;;;;;;;;;;5038371;28;20053;-84
2023/04/10 02:03:50;;;;;;;1.83;1.20;;;;;;;;;;5040309;28;20041;-84
2023/04/10 02:06:54;;;;;;;2.20;1.10;;;;;;;;;;5042988;28;20041;-83
2023/04/10 02:09:25;;;;;;;1.63;1.20;;;;;;;;;;5038670;28;20028;-83
2023/04/10 02:11:57;;;;;;;3.30;1.70;;;;;;;;;;5050090;28;20032;-81
2023/04/10 02:14:28;;;;;;;2.03;1.45;;;;;;;;;;5032727;28;20100;-83
2023/04/10 02:16:54;;;;;;;1.73;1.25;;;;;;;;;;5036304;28;20037;-83
2023/04/10 02:19:22;;;;;;;2.40;1.20;;;;;;;;;;5036979;28;20056;-84
2023/04/10 02:21:49;;;;;;;3.53;1.73;;;;;;;;;;5037735;28;20029;-83
2023/04/10 02:24:14;;;;;;;4.60;2.20;;;;;;;;;;5034475;28;20043;-83
2023/04/10 02:26:47;;;;;;;1.73;1.25;;;;;;;;;;5037034;28;20456;-83
2023/04/10 02:29:13;;;;;;;2.28;1.70;;;;;;;;;;5034982;28;20040;-84
2023/04/10 02:31:39;;;;;;;2.67;1.60;;;;;;;;;;5036449;28;20037;-83
2023/04/10 02:34:06;;;;;;;3.15;1.25;;;;;;;;;;5040457;28;20025;-83
2023/04/10 02:36:31;;;;;;;1.67;1.58;;;;;;;;;;5043254;28;20092;-83
2023/04/10 02:38:57;;;;;;;2.67;1.58;;;;;;;;;;5041457;28;20026;-83
2023/04/10 02:41:23;;;;;;;4.13;2.05;;;;;;;;;;5038468;28;20033;-83
2023/04/10 02:43:48;;;;;;;3.70;1.42;;;;;;;;;;5041335;28;20114;-83
2023/04/10 02:46:14;;;;;;;5.45;1.83;;;;;;;;;;5039009;28;20465;-84
2023/04/10 02:48:39;;;;;;;2.30;1.20;;;;;;;;;;5038947;28;20021;-83
2023/04/10 02:51:05;;;;;;;2.80;1.70;;;;;;;;;;5045146;28;20033;-83
2023/04/10 02:53:32;;;;;;;2.47;1.67;;;;;;;;;;5039863;28;20389;-84
2023/04/10 02:55:58;;;;;;;3.33;1.40;;;;;;;;;;5046592;28;20036;-85
2023/04/10 02:58:23;;;;;;;2.92;1.48;;;;;;;;;;5041568;28;20033;-84
2023/04/10 03:00:50;;;;;;;2.13;1.40;;;;;;;;;;5041915;28;20044;-86
2023/04/10 03:03:17;;;;;;;1.27;1.05;;;;;;;;;;5040143;28;20053;-85
2023/04/10 03:05:45;;;;;;;2.97;1.52;;;;;;;;;;5035658;28;20374;-84
2023/04/10 03:08:12;;;;;;;4.68;1.90;;;;;;;;;;5047474;28;20088;-84
2023/04/10 03:10:37;;;;;;;3.92;2.15;;;;;;;;;;5042793;28;20025;-82
2023/04/10 03:13:03;;;;;;;1.83;1.55;;;;;;;;;;5041758;28;20025;-83
2023/04/10 03:15:28;;;;;;;1.50;0.75;;;;;;;;;;5040693;28;20029;-83
2023/04/10 03:17:53;;;;;;;6.45;2.08;;;;;;;;;;5036814;28;20044;-84
2023/04/10 03:20:19;;;;;;;1.27;1.08;;;;;;;;;;5037360;28;20037;-83
2023/04/10 03:22:44;;;;;;;4.88;1.67;;;;;;;;;;5044704;28;20028;-83
2023/04/10 03:25:10;;;;;;;2.70;1.65;;;;;;;;;;5040492;28;20037;-83
2023/04/10 03:27:35;;;;;;;1.40;1.30;;;;;;;;;;5039116;28;20025;-84
2023/04/10 03:30:01;;;;;;;4.82;1.35;;;;;;;;;;5045799;28;20484;-83
2023/04/10 03:32:29;;;;;;;2.92;1.45;;;;;;;;;;5039197;28;20104;-84
2023/04/10 03:34:56;;;;;;;1.50;0.90;;;;;;;;;;5036272;28;20107;-84
2023/04/10 03:37:21;;;;;;;2.47;1.30;;;;;;;;;;5041554;28;20033;-83
2023/04/10 03:39:47;;;;;;;2.88;1.50;;;;;;;;;;5040374;28;20035;-85
2023/04/10 03:42:12;;;;;;;3.03;1.30;;;;;;;;;;5046030;28;20024;-84
2023/04/10 03:44:37;;;;;;;2.50;1.50;;;;;;;;;;5050834;28;20071;-84
2023/04/10 03:47:03;;;;;;;2.28;1.65;;;;;;;;;;5044947;28;20021;-83
2023/04/10 03:49:28;;;;;;;2.70;1.65;;;;;;;;;;5040689;28;20021;-85
2023/04/10 03:51:54;;;;;;;3.83;1.40;;;;;;;;;;5040158;28;20378;-84
2023/04/10 03:54:19;;;;;;;2.17;1.65;;;;;;;;;;5040862;28;20036;-84
2023/04/10 03:56:45;;;;;;;3.00;2.22;;;;;;;;;;5040522;28;20440;-83
2023/04/10 03:59:10;;;;;;;2.28;1.63;;;;;;;;;;5043599;28;20059;-84
2023/04/10 04:01:36;;;;;;;1.20;1.10;;;;;;;;;;5041829;28;20520;-83
2023/04/10 04:04:01;;;;;;;3.20;1.70;;;;;;;;;;5043362;28;20026;-84
2023/04/10 04:06:27;;;;;;;2.08;1.42;;;;;;;;;;5041751;28;20389;-83
2023/04/10 04:08:52;;;;;;;1.50;1.35;;;;;;;;;;5047393;28;20021;-84
2023/04/10 04:11:17;;;;;;;2.08;1.55;;;;;;;;;;5034066;28;20033;-86
2023/04/10 04:13:43;;;;;;;1.08;0.98;;;;;;;;;;5042346;28;20027;-84
2023/04/10 04:16:09;;;;;;;1.40;1.10;;;;;;;;;;5037233;28;20482;-85
2023/04/10 04:18:35;;;;;;;4.00;2.13;;;;;;;;;;5039019;28;20477;-84
2023/04/10 04:21:00;;;;;;;1.67;1.33;;;;;;;;;;5036062;28;20029;-85
2023/04/10 04:23:26;;;;;;;3.03;2.00;;;;;;;;;;5037594;28;20037;-84
2023/04/10 04:25:53;;;;;;;7.00;3.83;;;;;;;;;;5034870;28;20083;-84
2023/04/10 04:28:18;;;;;;;6.40;3.75;;;;;;;;;;5044749;28;20018;-86
2023/04/10 04:30:44;;;;;;;8.40;3.50;;;;;;;;;;5046723;28;20339;-83
2023/04/10 04:33:09;;;;;;;7.55;4.25;;;;;;;;;;5046920;28;20079;-81
2023/04/10 04:35:35;;;;;;;4.65;3.50;;;;;;;;;;5044561;28;20393;-83
2023/04/10 04:38:00;;;;;;;6.50;3.97;;;;;;;;;;5042526;28;20454;-82
2023/04/10 04:40:26;;;;;;;6.20;3.38;;;;;;;;;;5038055;28;20424;-82
2023/04/10 04:42:51;;;;;;;3.53;2.28;;;;;;;;;;5039764;28;20028;-82
2023/04/10 04:45:17;;;;;;;6.88;2.50;;;;;;;;;;5040363;28;20060;-82
2023/04/10 04:47:42;;;;;;;3.33;2.60;;;;;;;;;;5038437;28;20054;-83
2023/04/10 04:50:09;;;;;;;4.97;2.72;;;;;;;;;;5036657;28;20091;-83
2023/04/10 04:52:34;;;;;;;2.75;2.08;;;;;;;;;;5043103;28;20033;-82
2023/04/10 04:55:00;;;;;;;3.58;1.90;;;;;;;;;;5039874;28;20045;-83
2023/04/10 04:57:25;;;;;;;4.53;2.60;;;;;;;;;;5038032;28;20017;-81
2023/04/10 04:59:51;;;;;;;2.03;1.38;;;;;;;;;;5039650;28;20029;-82
2023/04/10 05:02:17;;;;;;;3.25;1.58;;;;;;;;;;5042733;28;20112;-81
2023/04/10 05:04:43;;;;;;;2.22;1.98;;;;;;;;;;5035220;28;20184;-82
2023/04/10 05:07:09;;;;;;;4.45;2.03;;;;;;;;;;5037528;28;20020;-81
2023/04/10 05:09:34;;;;;;;3.20;2.03;;;;;;;;;;5038303;28;20021;-83
2023/04/10 05:12:01;;;;;;;4.45;2.28;;;;;;;;;;5039313;28;20516;-80
2023/04/10 05:14:26;;;;;;;4.47;2.40;;;;;;;;;;5040266;28;20025;-81
2023/04/10 05:16:52;;;;;;;5.15;2.38;;;;;;;;;;5036877;28;20047;-83
2023/04/10 05:19:17;;;;;;;3.85;2.47;;;;;;;;;;5038713;28;20024;-82
2023/04/10 05:21:42;;;;;;;3.15;2.10;;;;;;;;;;5038179;28;20048;-83
2023/04/10 05:24:08;;;;;;;5.30;2.40;;;;;;;;;;5042265;28;20016;-82
2023/04/10 05:26:34;;;;;;;4.32;3.00;;;;;;;;;;5042666;28;20029;-82
2023/04/10 05:28:59;;;;;;;9.43;3.33;;;;;;;;;;5039093;28;20032;-84
2023/04/10 05:31:25;;;;;;;5.78;3.33;;;;;;;;;;5037690;28;20167;-83
2023/04/10 05:33:50;;;;;;;5.90;3.67;;;;;;;;;;5038590;28;20043;-82
2023/04/10 05:36:17;;;;;;;5.10;2.67;;;;;;;;;;5035584;28;20040;-83
2023/04/10 05:38:42;;;;;;;5.85;2.50;;;;;;;;;;5026567;28;20021;-83
2023/04/10 05:41:08;;;;;;;3.20;2.00;;;;;;;;;;5037519;28;20021;-81
2023/04/10 05:43:33;;;;;;;4.93;2.72;;;;;;;;;;5035374;28;20045;-81
2023/04/10 05:45:59;;;;;;;3.95;2.33;;;;;;;;;;5040176;28;20033;-82
2023/04/10 05:48:25;;;;;;;3.03;1.85;;;;;;;;;;5041946;28;20424;-81
2023/04/10 05:50:51;;;;;;;3.15;2.25;;;;;;;;;;5041979;28;20033;-82
2023/04/10 05:53:19;;;;;;;6.47;2.78;;;;;;;;;;5030958;28;20054;-82
2023/04/10 05:55:44;;;;;;;6.72;3.17;;;;;;;;;;5031360;28;20034;-82
2023/04/10 05:58:10;;;;;;;2.97;2.25;;;;;;;;;;5037020;28;20037;-82
2023/04/10 06:00:36;;;;;;;5.18;3.88;;;;;;;;;;5036264;28;20032;-81
2023/04/10 06:03:02;;;;;;;6.47;3.22;;;;;;;;;;5044290;28;20120;-81
2023/04/10 06:05:28;;;;;;;4.47;2.65;;;;;;;;;;5032868;28;20064;-80
2023/04/10 06:07:53;;;;;;;2.60;2.22;;;;;;;;;;5040375;28;20810;-81
2023/04/10 06:10:18;;;;;;;5.35;2.67;;;;;;;;;;5040174;28;20482;-81
2023/04/10 06:12:44;;;;;;;5.97;3.53;;;;;;;;;;5034575;28;20051;-82
2023/04/10 06:15:10;;;;;;;4.15;1.80;;;;;;;;;;5042308;28;20017;-83
2023/04/10 06:17:42;;;;;;;5.00;3.25;;;;;;;;;;5045940;28;20037;-82
2023/04/10 06:20:08;;;;;;;4.53;2.55;;;;;;;;;;5033658;28;20025;-83
2023/04/10 06:22:33;;;;;;;5.88;3.63;;;;;;;;;;5045532;28;20063;-81
2023/04/10 06:24:59;;;;;;;5.35;2.92;;;;;;;;;;5044315;28;20057;-83
2023/04/10 06:27:24;;;;;;;6.20;3.35;;;;;;;;;;5040495;28;20018;-81
2023/04/10 06:29:50;;;;;;;4.10;2.63;;;;;;;;;;5041303;28;20018;-81
2023/04/10 06:32:15;;;;;;;5.40;2.63;;;;;;;;;;5044776;28;20025;-82
2023/04/10 06:34:41;;;;;;;4.55;2.60;;;;;;;;;;5040989;28;20029;-81
2023/04/10 06:37:06;;;;;;;3.72;3.30;;;;;;;;;;5041037;28;20037;-83
2023/04/10 06:39:31;;;;;;;5.78;3.28;;;;;;;;;;5032992;28;20497;-83
2023/04/10 06:41:57;;;;;;;6.30;3.70;;;;;;;;;;5047895;28;20033;-83
2023/04/10 06:44:22;;;;;;;5.80;3.22;;;;;;;;;;5040578;28;20045;-84
2023/04/10 06:46:48;;;;;;;5.53;2.88;;;;;;;;;;5036342;28;20041;-83
2023/04/10 06:49:13;;;;;;;6.15;3.58;;;;;;;;;;5043414;28;20051;-84
2023/04/10 06:51:39;;;;;;;4.45;2.88;;;;;;;;;;5043833;28;20029;-84
2023/04/10 06:54:04;;;;;;;7.53;3.30;;;;;;;;;;5049064;28;20021;-81
2023/04/10 06:56:30;;;;;;;4.78;2.15;;;;;;;;;;5046376;28;20025;-82
2023/04/10 06:58:56;;;;;;;8.85;3.65;;;;;;;;;;5040338;28;20397;-84
2023/04/10 07:01:22;;;;;;;4.80;3.10;;;;;;;;;;5042293;28;20436;-85
2023/04/10 07:03:47;;;;;;;4.22;2.42;;;;;;;;;;5051696;28;20025;-84
2023/04/10 07:06:13;;;;;;;5.10;3.13;;;;;;;;;;5032948;28;20541;-82
2023/04/10 07:08:38;;;;;;;6.68;3.30;;;;;;;;;;5042888;28;20500;-85
2023/04/10 07:11:04;;;;;;;6.05;3.03;;;;;;;;;;5036040;28;20401;-83
2023/04/10 07:13:29;;;;;;;6.13;2.97;;;;;;;;;;5046351;28;20061;-82
2023/04/10 07:15:54;;;;;;;5.97;3.08;;;;;;;;;;5044206;28;20043;-83
2023/04/10 07:18:20;;;;;;;4.15;2.35;;;;;;;;;;5041565;28;20029;-84
2023/04/10 07:20:45;;;;;;;5.43;3.45;;;;;;;;;;5033315;28;20485;-84
2023/04/10 07:23:11;;;;;;;7.32;3.30;;;;;;;;;;5040100;28;20024;-83
2023/04/10 07:25:36;;;;;;;5.80;3.33;;;;;;;;;;5042392;28;20080;-82
2023/04/10 07:28:02;;;;;;;5.95;2.90;;;;;;;;;;5041400;28;20021;-83
2023/04/10 07:30:27;;;;;;;6.30;3.72;;;;;;;;;;5044542;28;20021;-82
2023/04/10 07:32:53;;;;;;;5.90;2.60;;;;;;;;;;5043404;28;20032;-82
2023/04/10 07:35:19;;;;;;;7.10;3.63;;;;;;;;;;5043126;28;20860;-82
2023/04/10 07:37:45;;;;;;;5.45;3.75;;;;;;;;;;5036154;28;20048;-82
2023/04/10 07:40:11;;;;;;;8.48;3.33;;;;;;;;;;5033712;28;20359;-82
2023/04/10 07:42:36;;;;;;;5.95;3.40;;;;;;;;;;5043768;28;20040;-82
2023/04/10 07:45:02;;;;;;;5.18;3.03;;;;;;;;;;5032173;28;20129;-82
2023/04/10 07:47:27;;;;;;;3.88;2.65;;;;;;;;;;5037258;28;20025;-84
2023/04/10 07:49:53;;;;;;;6.03;3.08;;;;;;;;;;5034531;28;20555;-82
2023/04/10 07:52:18;;;;;;;5.43;3.35;;;;;;;;;;5032440;28;20072;-82
2023/04/10 07:54:43;;;;;;;4.25;2.63;;;;;;;;;;5037613;28;20458;-82
2023/04/10 07:57:09;;;;;;;7.68;4.65;;;;;;;;;;5033448;28;20024;-82
2023/04/10 07:59:34;;;;;;;7.65;4.70;;;;;;;;;;5033782;28;20126;-82
2023/04/10 08:02:00;;;;;;;5.53;3.33;;;;;;;;;;5041933;28;20032;-82
2023/04/10 08:04:25;;;;;;;13.88;3.30;;;;;;;;;;5044774;28;20025;-83
2023/04/10 08:06:51;;;;;;;5.85;3.30;;;;;;;;;;5043873;28;20530;-82
2023/04/10 08:09:16;;;;;;;7.88;4.38;;;;;;;;;;5037744;28;20018;-83
2023/04/10 08:11:42;;;;;;;6.18;3.28;;;;;;;;;;5039985;28;20029;-82
2023/04/10 08:14:07;;;;;;;5.25;3.38;;;;;;;;;;5039813;28;20108;-85
2023/04/10 08:16:34;;;;;;;5.63;3.45;;;;;;;;;;5036704;28;20025;-85
2023/04/10 08:19:00;;;;;;;8.05;4.22;;;;;;;;;;5042301;28;20032;-87
2023/04/10 08:21:27;;;;;;;6.63;3.45;;;;;;;;;;5042502;28;20056;-84
2023/04/10 08:23:54;;;;;;;6.35;3.60;;;;;;;;;;5047834;28;20392;-86
2023/04/10 08:26:22;;;;;;;6.60;4.18;;;;;;;;;;5038898;28;20024;-84
2023/04/10 08:28:50;;;;;;;5.45;2.80;;;;;;;;;;5028862;28;20029;-83
2023/04/10 08:31:16;;;;;;;5.57;2.85;;;;;;;;;;5042917;28;20025;-83
2023/04/10 08:33:42;;;;;;;7.78;3.75;;;;;;;;;;5064471;28;20029;-83
2023/04/10 08:36:08;;;;;;;4.75;2.67;;;;;;;;;;5038255;28;20116;-84
2023/04/10 08:38:34;;;;;;;7.68;4.05;;;;;;;;;;5049191;28;20464;-83
2023/04/10 08:40:59;;;;;;;10.25;3.95;;;;;;;;;;5041215;28;20052;-84
2023/04/10 08:43:25;;;;;;;5.97;3.47;;;;;;;;;;5038417;28;20050;-85
2023/04/10 08:45:52;;;;;;;7.28;4.03;;;;;;;;;;5044798;28;20112;-87
2023/04/10 08:48:24;;;;;;;5.82;2.92;;;;;;;;;;5040812;28;20078;-82
2023/04/10 08:50:50;;;;;;;4.55;2.78;;;;;;;;;;5030929;28;20029;-82
2023/04/10 08:53:19;;;;;;;7.63;3.13;;;;;;;;;;5036936;28;20040;-82
2023/04/10 08:55:45;;;;;;;4.70;2.78;;;;;;;;;;5039811;28;20028;-82
2023/04/10 08:58:12;;;;;;;5.38;3.08;;;;;;;;;;5035240;28;20074;-82
2023/04/10 09:00:38;;;;;;;4.55;3.40;;;;;;;;;;5036770;28;20036;-81
2023/04/10 09:03:07;;;;;;;4.85;2.97;;;;;;;;;;5031989;28;20590;-84
2023/04/10 09:05:34;;;;;;;7.50;3.70;;;;;;;;;;5039161;28;20469;-84
2023/04/10 09:08:00;;;;;;;3.90;2.47;;;;;;;;;;5037218;28;20033;-83
2023/04/10 09:10:25;;;;;;;8.35;4.32;;;;;;;;;;5033729;28;20025;-84
2023/04/10 09:12:51;;;;;;;5.13;2.85;;;;;;;;;;5034179;28;20029;-84
2023/04/10 09:15:16;;;;;;;6.15;3.13;;;;;;;;;;5037687;28;20052;-84
2023/04/10 09:17:54;;;;;;;5.43;2.83;;;;;;;;;;5049990;28;20389;-84
2023/04/10 09:20:21;;;;;;;5.30;3.17;;;;;;;;;;5032202;28;20029;-84
2023/04/10 09:22:47;;;;;;;4.38;2.75;;;;;;;;;;5033533;28;20029;-84
2023/04/10 09:25:28;;;;;;;5.65;3.00;;;;;;;;;;5038633;28;20120;-84
2023/04/10 09:28:02;;;;;;;3.78;2.25;;;;;;;;;;5027881;28;20108;-84
2023/04/10 09:30:39;;;;;;;18.23;3.33;;;;;;;;;;5039377;28;20446;-84
2023/04/10 09:33:21;;;;;;;6.82;2.85;;;;;;;;;;5039609;28;20362;-84
2023/04/10 09:35:47;;;;;;;4.78;3.03;;;;;;;;;;5039436;28;20056;-84
2023/04/10 09:38:17;;;;;;;7.18;3.53;;;;;;;;;;5039950;28;20056;-84
2023/04/10 09:40:44;;;;;;;5.35;3.20;;;;;;;;;;5033784;28;20099;-85
2023/04/10 09:43:26;;;;;;;6.80;4.00;;;;;;;;;;5043889;28;20033;-84
2023/04/10 09:45:55;;;;;;;5.80;3.55;;;;;;;;;;5034154;28;20032;-84
2023/04/10 09:48:22;;;;;;;6.43;3.00;;;;;;;;;;5034318;28;20017;-84
2023/04/10 09:50:47;;;;;;;6.72;3.25;;;;;;;;;;5040145;28;20489;-85
2023/04/10 09:53:18;;;;;;;5.57;3.35;;;;;;;;;;5054272;28;20031;-84
2023/04/10 09:55:45;;;;;;;3.85;3.00;;;;;;;;;;5044062;28;20024;-83
2023/04/10 09:58:11;;;;;;;4.03;2.78;;;;;;;;;;5051067;28;20028;-84
2023/04/10 10:00:47;;;;;;;5.82;3.35;;;;;;;;;;5048742;28;20029;-85
2023/04/10 10:03:18;;;;;;;8.68;4.07;;;;;;;;;;5044464;28;20063;-84
2023/04/10 10:05:49;;;;;;;5.38;3.30;;;;;;;;;;5046619;28;20473;-84
2023/04/10 10:08:15;;;;;;;4.78;2.92;;;;;;;;;;5039800;28;20029;-85
2023/04/10 10:10:47;;;;;;;9.32;3.35;;;;;;;;;;5050886;28;20380;-84
2023/04/10 10:13:23;;;;;;;7.50;2.95;;;;;;;;;;5046216;28;20040;-84
2023/04/10 10:16:00;;;;;;;5.72;3.25;;;;;;;;;;5047923;28;20091;-84
2023/04/10 10:18:37;;;;;;;4.07;2.28;;;;;;;;;;5045087;28;20032;-85
2023/04/10 10:21:03;;;;;;;5.38;2.83;;;;;;;;;;5041311;28;20037;-82
2023/04/10 10:23:32;;;;;;;4.47;2.92;;;;;;;;;;5050099;28;20060;-83
2023/04/10 10:25:59;;;;;;;4.07;2.63;;;;;;;;;;5044553;28;20025;-84
2023/04/10 10:28:27;;;;;;;10.80;4.13;;;;;;;;;;5042724;28;20029;-84
2023/04/10 10:30:53;;;;;;;4.68;2.80;;;;;;;;;;5053243;28;20021;-83
2023/04/10 10:33:19;;;;;;;5.53;3.05;;;;;;;;;;5044597;28;20025;-85
2023/04/10 10:35:45;;;;;;;5.03;2.88;;;;;;;;;;5046793;28;20017;-84
2023/04/10 10:38:11;;;;;;;4.57;2.35;;;;;;;;;;5039272;28;20035;-84
2023/04/10 10:41:06;;;;;;;5.95;2.85;;;;;;;;;;5042078;28;20036;-83
2023/04/10 10:44:09;;;;;;;4.72;3.05;;;;;;;;;;5042748;28;20040;-87
2023/04/10 10:46:42;;;;;;;2.90;2.40;;;;;;;;;;5039901;28;20077;-84
2023/04/10 10:49:07;;;;;;;3.65;2.60;;;;;;;;;;5041032;28;20025;-84
2023/04/10 10:51:46;;;;;;;3.90;2.40;;;;;;;;;;5045227;28;20024;-85
2023/04/10 10:54:34;;;;;;;7.35;3.13;;;;;;;;;;5043095;28;20024;-85
2023/04/10 10:57:01;;;;;;;5.43;3.00;;;;;;;;;;5042160;28;20035;-85
2023/04/10 10:59:42;;;;;;;6.47;2.80;;;;;;;;;;5042463;28;20037;-85
2023/04/10 11:02:10;;;;;;;3.17;1.98;;;;;;;;;;5043406;28;20032;-85
2023/04/10 11:04:47;;;;;;;4.65;3.00;;;;;;;;;;5044328;28;20096;-85
2023/04/10 11:07:14;;;;;;;5.07;2.42;;;;;;;;;;5042539;28;20036;-84
2023/04/10 11:09:49;;;;;;;4.38;3.33;;;;;;;;;;5042186;28;20053;-84
2023/04/10 11:12:22;;;;;;;4.32;2.58;;;;;;;;;;5036317;28;20034;-83
2023/04/10 11:14:59;;;;;;;3.75;3.00;;;;;;;;;;5038435;28;20075;-84
2023/04/10 11:17:49;;;;;;;6.72;2.88;;;;;;;;;;5040604;28;20032;-84
2023/04/10 11:20:20;;;;;;;4.93;2.75;;;;;;;;;;5045320;28;20029;-83
2023/04/10 11:23:09;;;;;;;2.95;2.03;;;;;;;;;;5043191;28;20385;-83
2023/04/10 11:25:52;;;;;;;4.05;2.80;;;;;;;;;;5039165;28;20045;-84
2023/04/10 11:28:38;;;;;;;4.32;2.55;;;;;;;;;;5043705;28;20047;-84
2023/04/10 11:31:35;;;;;;;4.55;2.33;;;;;;;;;;5044352;28;20021;-84
2023/04/10 11:34:05;;;;;;;3.97;2.72;;;;;;;;;;5034115;28;20076;-83
2023/04/10 11:36:33;;;;;;;4.88;2.47;;;;;;;;;;5041766;28;20091;-84
2023/04/10 11:39:11;;;;;;;5.18;2.58;;;;;;;;;;5046343;28;20064;-84
2023/04/10 11:41:39;;;;;;;4.07;2.70;;;;;;;;;;5039785;28;20089;-83
2023/04/10 11:44:10;;;;;;;5.22;2.83;;;;;;;;;;5045843;28;20049;-82
2023/04/10 11:46:37;;;;;;;3.78;2.65;;;;;;;;;;5042140;28;20116;-82
2023/04/10 11:49:05;;;;;;;4.80;2.72;;;;;;;;;;5039677;28;20481;-83
2023/04/10 11:51:32;;;;;;;5.35;2.80;;;;;;;;;;5038568;28;20465;-85
2023/04/10 11:54:06;;;;;;;5.35;2.33;;;;;;;;;;5038574;28;20025;-84
2023/04/10 11:56:31;;;;;;;5.38;2.22;;;;;;;;;;5036962;28;20032;-83
2023/04/10 11:58:57;;;;;;;3.97;2.38;;;;;;;;;;5043599;28;20155;-82
2023/04/10 12:01:22;;;;;;;2.85;2.00;;;;;;;;;;5043164;28;20060;-84
2023/04/10 12:03:48;;;;;;;2.42;1.80;;;;;;;;;;5044034;28;20025;-83
2023/04/10 12:06:15;;;;;;;3.03;1.70;;;;;;;;;;5043502;28;20037;-85
2023/04/10 12:08:50;;;;;;;4.00;2.67;;;;;;;;;;5039625;28;20029;-83
2023/04/10 12:11:25;;;;;;;5.13;2.75;;;;;;;;;;5041710;28;20055;-83
2023/04/10 12:13:53;;;;;;;6.97;2.78;;;;;;;;;;5038489;28;20059;-84
2023/04/10 12:16:18;;;;;;;4.00;2.60;;;;;;;;;;5037731;28;20043;-83
2023/04/10 12:18:44;;;;;;;4.63;3.42;;;;;;;;;;5034622;28;20037;-84
2023/04/10 12:21:10;;;;;;;5.95;3.20;;;;;;;;;;5040693;28;20076;-83
2023/04/10 12:23:40;;;;;;;5.28;3.25;;;;;;;;;;5043156;28;20028;-84
2023/04/10 12:26:11;;;;;;;4.85;2.10;;;;;;;;;;5042430;28;20033;-84
2023/04/10 12:28:39;;;;;;;6.47;3.28;;;;;;;;;;5040767;28;20092;-83
2023/04/10 12:31:05;;;;;;;9.05;3.72;;;;;;;;;;5041814;28;20112;-83
2023/04/10 12:33:30;;;;;;;6.43;3.10;;;;;;;;;;5033831;28;20104;-84
2023/04/10 12:35:56;;;;;;;7.28;3.78;;;;;;;;;;5041690;28;20079;-85
2023/04/10 12:38:43;;;;;;;5.63;3.03;;;;;;;;;;5043048;28;20071;-83
2023/04/10 12:41:10;;;;;;;6.13;2.80;;;;;;;;;;5034048;28;20036;-82
2023/04/10 12:43:38;;;;;;;5.47;2.38;;;;;;;;;;5040460;28;20118;-86
2023/04/10 12:46:05;;;;;;;2.13;1.23;;;;;;;;;;5032656;28;20029;-82
2023/04/10 12:48:30;;;;;;;3.03;1.83;;;;;;;;;;5032663;28;20100;-82
2023/04/10 12:50:56;;;;;;;5.50;1.85;;;;;;;;;;5039498;28;20078;-80
2023/04/10 12:53:22;;;;;;;2.30;1.63;;;;;;;;;;5039917;28;20109;-84
2023/04/10 12:56:02;;;;;;;2.95;1.98;;;;;;;;;;5036258;28;21309;-82
2023/04/10 12:58:29;;;;;;;3.13;1.85;;;;;;;;;;5040590;28;20033;-82
2023/04/10 13:01:01;;;;;;;4.07;2.20;;;;;;;;;;5044634;28;20889;-83
2023/04/10 13:03:27;;;;;;;3.35;2.17;;;;;;;;;;5042185;28;20484;-84
2023/04/10 13:05:52;;;;;;;2.65;1.67;;;;;;;;;;5037334;28;20037;-82
2023/04/10 13:08:19;;;;;;;3.58;2.28;;;;;;;;;;5042706;28;20068;-83
2023/04/10 13:10:44;;;;;;;3.45;1.35;;;;;;;;;;5040975;28;20036;-82
2023/04/10 13:13:13;;;;;;;2.40;1.58;;;;;;;;;;5029816;28;20021;-83
2023/04/10 13:15:39;;;;;;;2.45;1.95;;;;;;;;;;5068207;28;20477;-83
2023/04/10 13:18:06;;;;;;;2.67;1.73;;;;;;;;;;5030635;28;20025;-83
2023/04/10 13:20:32;;;;;;;2.88;1.98;;;;;;;;;;5039512;28;20025;-83
2023/04/10 13:22:58;;;;;;;3.97;1.98;;;;;;;;;;5036738;28;20033;-85
2023/04/10 13:25:24;;;;;;;3.47;2.00;;;;;;;;;;5045149;28;20017;-85
2023/04/10 13:27:51;;;;;;;2.25;1.85;;;;;;;;;;5033118;28;20036;-84
2023/04/10 13:30:17;;;;;;;3.50;2.15;;;;;;;;;;5037983;28;20067;-83
2023/04/10 13:32:42;;;;;;;2.92;1.67;;;;;;;;;;5035940;28;20065;-83
2023/04/10 13:35:08;;;;;;;2.35;1.50;;;;;;;;;;5038608;28;20083;-85
2023/04/10 13:37:34;;;;;;;1.90;1.45;;;;;;;;;;5033720;28;20036;-83
2023/04/10 13:39:59;;;;;;;2.60;1.60;;;;;;;;;;5040610;28;20029;-83
2023/04/10 13:42:27;;;;;;;2.53;1.20;;;;;;;;;;5041089;28;20029;-85
2023/04/10 13:44:53;;;;;;;3.25;1.88;;;;;;;;;;5030941;28;20045;-84
2023/04/10 13:47:18;;;;;;;3.13;2.13;;;;;;;;;;5033624;28;20055;-83
2023/04/10 13:49:44;;;;;;;4.40;2.63;;;;;;;;;;5041674;28;20100;-85
2023/04/10 13:52:09;;;;;;;3.00;2.05;;;;;;;;;;5036081;28;20026;-83
2023/04/10 13:54:35;;;;;;;5.40;2.80;;;;;;;;;;5039423;28;20029;-84
2023/04/10 13:57:01;;;;;;;4.32;2.38;;;;;;;;;;5040441;28;20029;-84
2023/04/10 13:59:27;;;;;;;4.45;2.40;;;;;;;;;;5043045;28;20116;-85
2023/04/10 14:01:52;;;;;;;4.13;2.78;;;;;;;;;;5044227;28;20051;-86
2023/04/10 14:04:18;;;;;;;3.85;2.20;;;;;;;;;;5042381;28;20024;-85
2023/04/10 14:06:43;;;;;;;2.40;1.73;;;;;;;;;;5042518;28;20021;-87
2023/04/10 14:09:09;;;;;;;3.13;2.40;;;;;;;;;;5044996;28;20029;-87
2023/04/10 14:11:34;;;;;;;3.33;2.45;;;;;;;;;;5042919;28;20036;-86
2023/04/10 14:14:00;;;;;;;5.85;2.88;;;;;;;;;;5058362;28;20025;-86
2023/04/10 14:16:25;;;;;;;4.93;3.22;;;;;;;;;;5042054;28;20024;-88
2023/04/10 14:18:51;;;;;;;5.43;3.15;;;;;;;;;;5038836;28;20029;-85
2023/04/10 14:21:16;;;;;;;4.45;3.40;;;;;;;;;;5039032;28;20085;-86
2023/04/10 14:23:41;;;;;;;4.40;2.95;;;;;;;;;;5037133;28;20107;-82
2023/04/10 14:26:07;;;;;;;3.70;2.70;;;;;;;;;;5040947;28;20441;-87
2023/04/10 14:28:33;;;;;;;5.40;3.30;;;;;;;;;;5043301;28;20497;-81
2023/04/10 14:30:58;;;;;;;7.82;3.83;;;;;;;;;;5034413;28;20029;-84
2023/04/10 14:33:25;;;;;;;4.03;3.03;;;;;;;;;;5045243;28;20024;-83
2023/04/10 14:35:52;;;;;;;5.68;2.88;;;;;;;;;;5043484;28;20021;-85
2023/04/10 14:38:17;;;;;;;4.90;2.42;;;;;;;;;;5042993;28;20057;-83
2023/04/10 14:40:45;;;;;;;2.00;1.58;;;;;;;;;;5038870;28;20029;-83
2023/04/10 14:43:10;;;;;;;4.30;2.30;;;;;;;;;;5045362;28;20025;-82
2023/04/10 14:45:36;;;;;;;3.83;2.60;;;;;;;;;;5037977;28;20473;-82
2023/04/10 14:48:01;;;;;;;2.22;1.40;;;;;;;;;;5043179;28;20037;-82